sensor_id;sensor_type;location;lat;lon;timestamp;temperature;humidity
3308;DHT22;1666;48.898;9.182;2023-03-31T00:00:14;11.60;1.00
3308;DHT22;1666;48.898;9.182;2023-03-31T00:02:44;11.50;1.00
3308;DHT22;1666;48.898;9.182;2023-03-31T00:05:15;11.50;1.00
3308;DHT22;1666;48.898;9.182;2023-03-31T00:07:45;11.50;1.00
3308;DHT22;1666;48.898;9.182;2023-03-31T00:10:15;11.50;1.00
3308;DHT22;1666;48.898;9.182;2023-03-31T00:12:47;11.50;1.00
3308;DHT22;1666;48.898;9.182;2023-03-31T00:15:17;11.50;1.00
3308;DHT22;1666;48.898;9.182;2023-03-31T00:17:47;11.50;1.00
3308;DHT22;1666;48.898;9.182;2023-03-31T00:20:18;11.40;1.00
3308;DHT22;1666;48.898;9.182;2023-03-31T00:22:48;11.40;1.00
3308;DHT22;1666;48.898;9.182;2023-03-31T00:25:20;11.30;1.00
3308;DHT22;1666;48.898;9.182;2023-03-31T00:27:53;11.30;1.00
3308;DHT22;1666;48.898;9.182;2023-03-31T00:30:23;11.20;1.00
3308;DHT22;1666;48.898;9.182;2023-03-31T00:32:52;11.30;1.00
3308;DHT22;1666;48.898;9.182;2023-03-31T00:35:22;11.30;1.00
3308;DHT22;1666;48.898;9.182;2023-03-31T00:37:52;11.20;1.00
3308;DHT22;1666;48.898;9.182;2023-03-31T00:40:24;11.20;1.00
3308;DHT22;1666;48.898;9.182;2023-03-31T00:42:56;11.30;1.00
3308;DHT22;1666;48.898;9.182;2023-03-31T00:45:27;11.30;1.00
3308;DHT22;1666;48.898;9.182;2023-03-31T00:48:03;11.30;1.00
3308;DHT22;1666;48.898;9.182;2023-03-31T00:50:40;11.30;1.00
3308;DHT22;1666;48.898;9.182;2023-03-31T00:53:15;11.30;1.00
3308;DHT22;1666;48.898;9.182;2023-03-31T00:55:49;11.20;1.00
3308;DHT22;1666;48.898;9.182;2023-03-31T00:58:24;11.20;1.00
3308;DHT22;1666;48.898;9.182;2023-03-31T01:00:57;11.20;1.00
3308;DHT22;1666;48.898;9.182;2023-03-31T01:03:29;11.10;1.00
3308;DHT22;1666;48.898;9.182;2023-03-31T01:06:02;11.30;1.00
3308;DHT22;1666;48.898;9.182;2023-03-31T01:08:37;11.40;1.00
3308;DHT22;1666;48.898;9.182;2023-03-31T01:11:11;11.50;1.00
3308;DHT22;1666;48.898;9.182;2023-03-31T01:13:45;11.50;1.00
3308;DHT22;1666;48.898;9.182;2023-03-31T01:16:18;11.60;1.00
3308;DHT22;1666;48.898;9.182;2023-03-31T01:18:48;11.70;1.00
3308;DHT22;1666;48.898;9.182;2023-03-31T01:21:46;11.70;1.00
3308;DHT22;1666;48.898;9.182;2023-03-31T01:24:52;12.00;1.00
3308;DHT22;1666;48.898;9.182;2023-03-31T01:27:40;12.10;1.00
3308;DHT22;1666;48.898;9.182;2023-03-31T01:30:36;12.10;1.00
3308;DHT22;1666;48.898;9.182;2023-03-31T01:33:28;12.10;1.00
3308;DHT22;1666;48.898;9.182;2023-03-31T01:42:23;12.10;1.00
3308;DHT22;1666;48.898;9.182;2023-03-31T01:45:01;12.00;1.00
3308;DHT22;1666;48.898;9.182;2023-03-31T01:47:39;12.00;1.00
3308;DHT22;1666;48.898;9.182;2023-03-31T01:50:20;12.00;1.00
3308;DHT22;1666;48.898;9.182;2023-03-31T01:52:55;12.00;1.00
3308;DHT22;1666;48.898;9.182;2023-03-31T01:55:31;12.00;1.00
3308;DHT22;1666;48.898;9.182;2023-03-31T01:58:08;12.00;1.00
3308;DHT22;1666;48.898;9.182;2023-03-31T02:00:43;12.00;1.00
3308;DHT22;1666;48.898;9.182;2023-03-31T02:03:20;12.00;1.00
3308;DHT22;1666;48.898;9.182;2023-03-31T02:05:57;11.90;1.00
3308;DHT22;1666;48.898;9.182;2023-03-31T02:08:30;11.80;1.00
3308;DHT22;1666;48.898;9.182;2023-03-31T02:11:02;11.80;1.00
3308;DHT22;1666;48.898;9.182;2023-03-31T02:13:37;11.80;1.00
3308;DHT22;1666;48.898;9.182;2023-03-31T02:16:14;11.90;1.00
3308;DHT22;1666;48.898;9.182;2023-03-31T02:18:46;11.90;1.00
3308;DHT22;1666;48.898;9.182;2023-03-31T02:21:19;11.90;1.00
3308;DHT22;1666;48.898;9.182;2023-03-31T02:23:50;11.90;1.00
3308;DHT22;1666;48.898;9.182;2023-03-31T02:26:24;11.90;1.00
3308;DHT22;1666;48.898;9.182;2023-03-31T02:28:58;11.90;1.00
3308;DHT22;1666;48.898;9.182;2023-03-31T02:31:33;11.80;1.00
3308;DHT22;1666;48.898;9.182;2023-03-31T02:34:05;11.70;1.00
3308;DHT22;1666;48.898;9.182;2023-03-31T02:36:36;11.60;1.00
3308;DHT22;1666;48.898;9.182;2023-03-31T02:39:08;11.50;1.00
3308;DHT22;1666;48.898;9.182;2023-03-31T02:41:39;11.40;1.00
3308;DHT22;1666;48.898;9.182;2023-03-31T02:44:12;11.40;1.00
3308;DHT22;1666;48.898;9.182;2023-03-31T02:46:42;11.40;1.00
3308;DHT22;1666;48.898;9.182;2023-03-31T02:49:12;11.30;1.00
3308;DHT22;1666;48.898;9.182;2023-03-31T02:51:57;11.30;1.00
3308;DHT22;1666;48.898;9.182;2023-03-31T02:54:46;11.20;1.00
3308;DHT22;1666;48.898;9.182;2023-03-31T02:57:32;11.10;1.00
3308;DHT22;1666;48.898;9.182;2023-03-31T03:00:14;11.10;1.00
3308;DHT22;1666;48.898;9.182;2023-03-31T03:02:58;11.10;1.00
3308;DHT22;1666;48.898;9.182;2023-03-31T03:05:36;11.10;1.00
3308;DHT22;1666;48.898;9.182;2023-03-31T03:08:20;11.10;1.00
3308;DHT22;1666;48.898;9.182;2023-03-31T03:11:01;11.10;1.00
3308;DHT22;1666;48.898;9.182;2023-03-31T03:13:43;11.10;1.00
3308;DHT22;1666;48.898;9.182;2023-03-31T03:16:20;11.10;1.00
3308;DHT22;1666;48.898;9.182;2023-03-31T03:18:56;11.10;1.00
3308;DHT22;1666;48.898;9.182;2023-03-31T03:21:28;11.00;1.00
3308;DHT22;1666;48.898;9.182;2023-03-31T03:23:58;11.10;1.00
3308;DHT22;1666;48.898;9.182;2023-03-31T03:26:28;11.10;1.00
3308;DHT22;1666;48.898;9.182;2023-03-31T03:29:01;11.10;1.00
3308;DHT22;1666;48.898;9.182;2023-03-31T03:31:33;11.10;1.00
3308;DHT22;1666;48.898;9.182;2023-03-31T03:34:03;11.00;1.00
3308;DHT22;1666;48.898;9.182;2023-03-31T03:36:33;11.00;1.00
3308;DHT22;1666;48.898;9.182;2023-03-31T03:39:04;10.90;1.00
3308;DHT22;1666;48.898;9.182;2023-03-31T03:41:34;10.90;1.00
3308;DHT22;1666;48.898;9.182;2023-03-31T03:44:04;10.90;1.00
3308;DHT22;1666;48.898;9.182;2023-03-31T03:46:37;10.90;1.00
3308;DHT22;1666;48.898;9.182;2023-03-31T03:49:07;10.80;1.00
3308;DHT22;1666;48.898;9.182;2023-03-31T03:51:37;10.80;1.00
3308;DHT22;1666;48.898;9.182;2023-03-31T03:54:07;10.90;1.00
3308;DHT22;1666;48.898;9.182;2023-03-31T03:56:37;10.90;1.00
3308;DHT22;1666;48.898;9.182;2023-03-31T03:59:07;10.90;1.00
3308;DHT22;1666;48.898;9.182;2023-03-31T04:01:40;10.90;1.00
3308;DHT22;1666;48.898;9.182;2023-03-31T04:04:10;10.90;1.00
3308;DHT22;1666;48.898;9.182;2023-03-31T04:06:40;10.90;1.00
3308;DHT22;1666;48.898;9.182;2023-03-31T04:09:10;10.90;1.00
3308;DHT22;1666;48.898;9.182;2023-03-31T04:11:40;10.80;1.00
3308;DHT22;1666;48.898;9.182;2023-03-31T04:14:10;10.70;1.00
3308;DHT22;1666;48.898;9.182;2023-03-31T04:16:42;10.70;1.00
3308;DHT22;1666;48.898;9.182;2023-03-31T04:19:13;10.70;1.00
3308;DHT22;1666;48.898;9.182;2023-03-31T04:21:43;10.60;1.00
3308;DHT22;1666;48.898;9.182;2023-03-31T04:24:16;10.50;1.00
3308;DHT22;1666;48.898;9.182;2023-03-31T04:26:47;10.60;1.00
3308;DHT22;1666;48.898;9.182;2023-03-31T04:29:17;10.60;1.00
3308;DHT22;1666;48.898;9.182;2023-03-31T04:31:51;10.60;1.00
3308;DHT22;1666;48.898;9.182;2023-03-31T04:34:26;10.60;1.00
3308;DHT22;1666;48.898;9.182;2023-03-31T04:37:02;10.60;1.00
3308;DHT22;1666;48.898;9.182;2023-03-31T04:39:32;10.60;1.00
3308;DHT22;1666;48.898;9.182;2023-03-31T04:42:02;10.60;1.00
3308;DHT22;1666;48.898;9.182;2023-03-31T04:44:32;10.60;1.00
3308;DHT22;1666;48.898;9.182;2023-03-31T04:47:04;10.60;1.00
3308;DHT22;1666;48.898;9.182;2023-03-31T04:49:34;10.60;1.00
3308;DHT22;1666;48.898;9.182;2023-03-31T04:52:04;10.60;1.00
3308;DHT22;1666;48.898;9.182;2023-03-31T04:54:34;10.60;1.00
3308;DHT22;1666;48.898;9.182;2023-03-31T04:57:04;10.60;1.00
3308;DHT22;1666;48.898;9.182;2023-03-31T04:59:34;10.60;1.00
3308;DHT22;1666;48.898;9.182;2023-03-31T05:02:06;10.60;1.00
3308;DHT22;1666;48.898;9.182;2023-03-31T05:04:37;10.60;1.00
3308;DHT22;1666;48.898;9.182;2023-03-31T05:07:07;10.70;1.00
3308;DHT22;1666;48.898;9.182;2023-03-31T05:09:37;10.60;1.00
3308;DHT22;1666;48.898;9.182;2023-03-31T05:12:07;10.60;1.00
3308;DHT22;1666;48.898;9.182;2023-03-31T05:14:36;10.60;1.00
3308;DHT22;1666;48.898;9.182;2023-03-31T05:17:09;10.60;2.00
3308;DHT22;1666;48.898;9.182;2023-03-31T05:19:39;10.60;2.90
3308;DHT22;1666;48.898;9.182;2023-03-31T05:22:09;10.60;3.40
3308;DHT22;1666;48.898;9.182;2023-03-31T05:24:39;10.60;7.90
3308;DHT22;1666;48.898;9.182;2023-03-31T05:27:08;10.50;9.30
3308;DHT22;1666;48.898;9.182;2023-03-31T05:29:39;10.40;11.70
3308;DHT22;1666;48.898;9.182;2023-03-31T05:32:12;10.40;13.50
3308;DHT22;1666;48.898;9.182;2023-03-31T05:34:42;10.30;16.30
3308;DHT22;1666;48.898;9.182;2023-03-31T05:37:12;10.20;19.60
3308;DHT22;1666;48.898;9.182;2023-03-31T05:39:42;10.20;21.70
3308;DHT22;1666;48.898;9.182;2023-03-31T05:42:12;10.10;24.70
3308;DHT22;1666;48.898;9.182;2023-03-31T05:44:42;10.00;28.10
3308;DHT22;1666;48.898;9.182;2023-03-31T05:47:14;10.00;30.70
3308;DHT22;1666;48.898;9.182;2023-03-31T05:49:44;9.90;33.60
3308;DHT22;1666;48.898;9.182;2023-03-31T05:52:14;9.90;37.00
3308;DHT22;1666;48.898;9.182;2023-03-31T05:54:44;9.80;37.80
3308;DHT22;1666;48.898;9.182;2023-03-31T05:57:14;9.80;40.00
3308;DHT22;1666;48.898;9.182;2023-03-31T05:59:44;9.80;41.30
3308;DHT22;1666;48.898;9.182;2023-03-31T06:02:16;9.90;42.20
3308;DHT22;1666;48.898;9.182;2023-03-31T06:04:46;9.80;43.00
3308;DHT22;1666;48.898;9.182;2023-03-31T06:07:16;9.80;43.90
3308;DHT22;1666;48.898;9.182;2023-03-31T06:09:48;9.80;44.30
3308;DHT22;1666;48.898;9.182;2023-03-31T06:12:18;9.80;44.70
3308;DHT22;1666;48.898;9.182;2023-03-31T06:14:48;9.90;44.90
3308;DHT22;1666;48.898;9.182;2023-03-31T06:17:20;9.90;44.90
3308;DHT22;1666;48.898;9.182;2023-03-31T06:19:50;9.80;45.00
3308;DHT22;1666;48.898;9.182;2023-03-31T06:22:20;9.80;45.70
3308;DHT22;1666;48.898;9.182;2023-03-31T06:24:50;9.80;45.40
3308;DHT22;1666;48.898;9.182;2023-03-31T06:27:20;9.80;46.10
3308;DHT22;1666;48.898;9.182;2023-03-31T06:29:50;9.80;46.10
3308;DHT22;1666;48.898;9.182;2023-03-31T06:32:22;9.80;46.10
3308;DHT22;1666;48.898;9.182;2023-03-31T06:34:53;9.80;46.10
3308;DHT22;1666;48.898;9.182;2023-03-31T06:37:22;9.80;45.20
3308;DHT22;1666;48.898;9.182;2023-03-31T06:39:52;9.90;46.20
3308;DHT22;1666;48.898;9.182;2023-03-31T06:42:22;9.90;46.10
3308;DHT22;1666;48.898;9.182;2023-03-31T06:44:52;9.90;46.20
3308;DHT22;1666;48.898;9.182;2023-03-31T06:47:26;9.80;46.10
3308;DHT22;1666;48.898;9.182;2023-03-31T06:49:56;9.80;46.20
3308;DHT22;1666;48.898;9.182;2023-03-31T06:52:26;9.90;46.20
3308;DHT22;1666;48.898;9.182;2023-03-31T06:54:56;9.90;46.20
3308;DHT22;1666;48.898;9.182;2023-03-31T06:57:26;9.80;46.20
3308;DHT22;1666;48.898;9.182;2023-03-31T06:59:59;9.90;46.30
3308;DHT22;1666;48.898;9.182;2023-03-31T07:02:32;9.90;46.70
3308;DHT22;1666;48.898;9.182;2023-03-31T07:05:03;9.90;47.10
3308;DHT22;1666;48.898;9.182;2023-03-31T07:07:34;9.90;46.80
3308;DHT22;1666;48.898;9.182;2023-03-31T07:10:05;9.90;47.90
3308;DHT22;1666;48.898;9.182;2023-03-31T07:12:35;9.90;46.40
3308;DHT22;1666;48.898;9.182;2023-03-31T07:15:06;9.90;47.60
3308;DHT22;1666;48.898;9.182;2023-03-31T07:17:39;9.90;47.50
3308;DHT22;1666;48.898;9.182;2023-03-31T07:20:10;9.90;47.50
3308;DHT22;1666;48.898;9.182;2023-03-31T07:22:41;9.90;48.30
3308;DHT22;1666;48.898;9.182;2023-03-31T07:25:13;9.90;47.60
3308;DHT22;1666;48.898;9.182;2023-03-31T07:27:43;10.00;47.20
3308;DHT22;1666;48.898;9.182;2023-03-31T07:30:15;10.00;46.50
3308;DHT22;1666;48.898;9.182;2023-03-31T07:32:49;10.10;46.70
3308;DHT22;1666;48.898;9.182;2023-03-31T07:35:21;10.20;45.70
3308;DHT22;1666;48.898;9.182;2023-03-31T07:37:51;10.20;44.80
3308;DHT22;1666;48.898;9.182;2023-03-31T07:40:24;10.30;42.20
3308;DHT22;1666;48.898;9.182;2023-03-31T07:42:55;10.50;36.20
3308;DHT22;1666;48.898;9.182;2023-03-31T07:45:25;10.60;29.60
3308;DHT22;1666;48.898;9.182;2023-03-31T07:47:58;10.60;27.30
3308;DHT22;1666;48.898;9.182;2023-03-31T07:50:28;10.70;24.30
3308;DHT22;1666;48.898;9.182;2023-03-31T07:52:58;11.20;22.70
3308;DHT22;1666;48.898;9.182;2023-03-31T07:55:28;11.40;17.00
3308;DHT22;1666;48.898;9.182;2023-03-31T07:57:58;11.50;16.10
3308;DHT22;1666;48.898;9.182;2023-03-31T08:00:28;11.40;11.20
3308;DHT22;1666;48.898;9.182;2023-03-31T08:03:01;11.60;8.30
3308;DHT22;1666;48.898;9.182;2023-03-31T08:05:30;11.80;7.50
3308;DHT22;1666;48.898;9.182;2023-03-31T08:08:00;11.90;5.70
3308;DHT22;1666;48.898;9.182;2023-03-31T08:10:30;12.00;1.50
3308;DHT22;1666;48.898;9.182;2023-03-31T08:13:00;12.20;1.00
3308;DHT22;1666;48.898;9.182;2023-03-31T08:15:30;12.30;1.00
3308;DHT22;1666;48.898;9.182;2023-03-31T08:18:03;12.60;1.00
3308;DHT22;1666;48.898;9.182;2023-03-31T08:20:33;12.80;1.00
3308;DHT22;1666;48.898;9.182;2023-03-31T08:23:05;12.90;1.00
3308;DHT22;1666;48.898;9.182;2023-03-31T08:25:37;12.90;1.00
3308;DHT22;1666;48.898;9.182;2023-03-31T08:28:07;12.90;1.00
3308;DHT22;1666;48.898;9.182;2023-03-31T08:30:40;13.30;1.00
3308;DHT22;1666;48.898;9.182;2023-03-31T08:33:13;13.40;1.00
3308;DHT22;1666;48.898;9.182;2023-03-31T08:35:45;13.40;1.00
3308;DHT22;1666;48.898;9.182;2023-03-31T08:38:15;13.50;1.00
3308;DHT22;1666;48.898;9.182;2023-03-31T08:40:44;13.60;1.00
3308;DHT22;1666;48.898;9.182;2023-03-31T08:43:21;13.60;1.00
3308;DHT22;1666;48.898;9.182;2023-03-31T08:45:53;13.70;1.00
3308;DHT22;1666;48.898;9.182;2023-03-31T08:48:28;13.60;1.00
3308;DHT22;1666;48.898;9.182;2023-03-31T08:51:02;13.80;1.00
3308;DHT22;1666;48.898;9.182;2023-03-31T08:53:37;13.90;1.00
3308;DHT22;1666;48.898;9.182;2023-03-31T08:56:15;14.00;1.00
3308;DHT22;1666;48.898;9.182;2023-03-31T08:58:47;14.20;1.00
3308;DHT22;1666;48.898;9.182;2023-03-31T09:01:23;14.20;1.00
3308;DHT22;1666;48.898;9.182;2023-03-31T09:04:14;14.30;1.00
3308;DHT22;1666;48.898;9.182;2023-03-31T09:06:51;14.40;1.00
3308;DHT22;1666;48.898;9.182;2023-03-31T09:09:31;14.40;1.00
3308;DHT22;1666;48.898;9.182;2023-03-31T09:12:09;14.40;1.00
3308;DHT22;1666;48.898;9.182;2023-03-31T09:14:42;14.50;1.00
3308;DHT22;1666;48.898;9.182;2023-03-31T09:17:18;14.70;1.00
3308;DHT22;1666;48.898;9.182;2023-03-31T09:19:55;14.80;1.00
3308;DHT22;1666;48.898;9.182;2023-03-31T09:22:30;15.00;1.00
3308;DHT22;1666;48.898;9.182;2023-03-31T09:25:04;14.90;1.00
3308;DHT22;1666;48.898;9.182;2023-03-31T09:27:37;15.20;1.00
3308;DHT22;1666;48.898;9.182;2023-03-31T09:30:13;15.20;1.00
3308;DHT22;1666;48.898;9.182;2023-03-31T09:32:44;15.10;1.00
3308;DHT22;1666;48.898;9.182;2023-03-31T09:35:20;15.30;1.00
3308;DHT22;1666;48.898;9.182;2023-03-31T09:37:52;15.50;1.00
3308;DHT22;1666;48.898;9.182;2023-03-31T09:40:24;15.00;1.00
3308;DHT22;1666;48.898;9.182;2023-03-31T09:42:58;15.20;1.00
3308;DHT22;1666;48.898;9.182;2023-03-31T09:45:29;15.00;1.00
3308;DHT22;1666;48.898;9.182;2023-03-31T09:48:02;15.00;1.00
3308;DHT22;1666;48.898;9.182;2023-03-31T09:50:39;15.40;1.00
3308;DHT22;1666;48.898;9.182;2023-03-31T09:53:14;15.40;1.00
3308;DHT22;1666;48.898;9.182;2023-03-31T09:55:49;15.20;1.00
3308;DHT22;1666;48.898;9.182;2023-03-31T09:58:22;15.00;1.00
3308;DHT22;1666;48.898;9.182;2023-03-31T10:00:59;15.40;1.00
3308;DHT22;1666;48.898;9.182;2023-03-31T10:03:30;15.50;1.00
3308;DHT22;1666;48.898;9.182;2023-03-31T10:06:10;15.80;1.00
3308;DHT22;1666;48.898;9.182;2023-03-31T10:08:47;15.80;1.00
3308;DHT22;1666;48.898;9.182;2023-03-31T10:11:17;16.00;1.00
3308;DHT22;1666;48.898;9.182;2023-03-31T10:13:49;16.10;1.00
3308;DHT22;1666;48.898;9.182;2023-03-31T10:16:30;15.80;1.00
3308;DHT22;1666;48.898;9.182;2023-03-31T10:19:22;15.60;1.00
3308;DHT22;1666;48.898;9.182;2023-03-31T10:21:59;15.70;1.00
3308;DHT22;1666;48.898;9.182;2023-03-31T10:24:37;16.10;1.00
3308;DHT22;1666;48.898;9.182;2023-03-31T10:27:17;15.70;1.00
3308;DHT22;1666;48.898;9.182;2023-03-31T10:29:51;15.50;1.00
3308;DHT22;1666;48.898;9.182;2023-03-31T10:32:24;15.30;1.00
3308;DHT22;1666;48.898;9.182;2023-03-31T10:34:55;15.50;1.00
3308;DHT22;1666;48.898;9.182;2023-03-31T10:37:29;15.40;1.00
3308;DHT22;1666;48.898;9.182;2023-03-31T10:40:02;15.30;1.00
3308;DHT22;1666;48.898;9.182;2023-03-31T10:42:33;15.50;1.00
3308;DHT22;1666;48.898;9.182;2023-03-31T10:45:11;15.40;1.00
3308;DHT22;1666;48.898;9.182;2023-03-31T10:47:58;15.40;1.00
3308;DHT22;1666;48.898;9.182;2023-03-31T10:50:30;15.80;1.00
3308;DHT22;1666;48.898;9.182;2023-03-31T10:53:05;15.30;1.00
3308;DHT22;1666;48.898;9.182;2023-03-31T10:55:40;15.10;1.00
3308;DHT22;1666;48.898;9.182;2023-03-31T10:58:26;14.50;1.00
3308;DHT22;1666;48.898;9.182;2023-03-31T11:01:08;15.20;1.00
3308;DHT22;1666;48.898;9.182;2023-03-31T11:04:05;15.50;1.00
3308;DHT22;1666;48.898;9.182;2023-03-31T11:06:51;15.60;1.00
3308;DHT22;1666;48.898;9.182;2023-03-31T11:09:43;15.50;1.00
3308;DHT22;1666;48.898;9.182;2023-03-31T11:12:22;15.40;1.00
3308;DHT22;1666;48.898;9.182;2023-03-31T11:15:02;15.40;1.00
3308;DHT22;1666;48.898;9.182;2023-03-31T11:17:47;15.20;1.00
3308;DHT22;1666;48.898;9.182;2023-03-31T11:20:25;14.30;1.00
3308;DHT22;1666;48.898;9.182;2023-03-31T11:23:03;13.70;1.00
3308;DHT22;1666;48.898;9.182;2023-03-31T11:25:44;12.70;1.00
3308;DHT22;1666;48.898;9.182;2023-03-31T11:28:25;12.00;1.00
3308;DHT22;1666;48.898;9.182;2023-03-31T11:31:05;11.40;1.00
3308;DHT22;1666;48.898;9.182;2023-03-31T11:33:50;10.80;1.10
3308;DHT22;1666;48.898;9.182;2023-03-31T11:36:58;10.50;7.60
3308;DHT22;1666;48.898;9.182;2023-03-31T11:39:40;10.40;8.80
3308;DHT22;1666;48.898;9.182;2023-03-31T11:42:17;10.50;9.40
3308;DHT22;1666;48.898;9.182;2023-03-31T11:44:51;10.60;6.40
3308;DHT22;1666;48.898;9.182;2023-03-31T11:47:25;10.60;3.80
3308;DHT22;1666;48.898;9.182;2023-03-31T11:49:58;10.90;1.00
3308;DHT22;1666;48.898;9.182;2023-03-31T11:52:31;11.10;1.00
3308;DHT22;1666;48.898;9.182;2023-03-31T11:55:06;11.00;1.00
3308;DHT22;1666;48.898;9.182;2023-03-31T11:57:47;11.00;1.00
3308;DHT22;1666;48.898;9.182;2023-03-31T12:00:20;11.10;1.00
3308;DHT22;1666;48.898;9.182;2023-03-31T12:02:56;11.30;1.00
3308;DHT22;1666;48.898;9.182;2023-03-31T12:05:31;11.50;1.00
3308;DHT22;1666;48.898;9.182;2023-03-31T12:08:06;11.60;1.00
3308;DHT22;1666;48.898;9.182;2023-03-31T12:10:44;11.60;1.00
3308;DHT22;1666;48.898;9.182;2023-03-31T12:13:35;11.70;1.00
3308;DHT22;1666;48.898;9.182;2023-03-31T12:16:11;11.90;1.00
3308;DHT22;1666;48.898;9.182;2023-03-31T12:18:49;12.20;1.00
3308;DHT22;1666;48.898;9.182;2023-03-31T12:21:26;12.50;1.00
3308;DHT22;1666;48.898;9.182;2023-03-31T12:23:58;12.70;1.00
3308;DHT22;1666;48.898;9.182;2023-03-31T12:26:35;12.70;1.00
3308;DHT22;1666;48.898;9.182;2023-03-31T12:29:21;12.80;1.00
3308;DHT22;1666;48.898;9.182;2023-03-31T12:31:53;13.00;1.00
3308;DHT22;1666;48.898;9.182;2023-03-31T12:34:27;13.00;1.00
3308;DHT22;1666;48.898;9.182;2023-03-31T12:39:58;13.50;1.00
3308;DHT22;1666;48.898;9.182;2023-03-31T12:42:49;13.70;1.00
3308;DHT22;1666;48.898;9.182;2023-03-31T12:45:27;14.00;1.00
3308;DHT22;1666;48.898;9.182;2023-03-31T12:48:15;14.20;1.00
3308;DHT22;1666;48.898;9.182;2023-03-31T12:50:55;14.30;1.00
3308;DHT22;1666;48.898;9.182;2023-03-31T12:53:38;14.30;1.00
3308;DHT22;1666;48.898;9.182;2023-03-31T12:56:13;14.50;1.00
3308;DHT22;1666;48.898;9.182;2023-03-31T12:58:44;14.80;1.00
3308;DHT22;1666;48.898;9.182;2023-03-31T13:01:18;15.20;1.00
3308;DHT22;1666;48.898;9.182;2023-03-31T13:03:53;15.30;1.00
3308;DHT22;1666;48.898;9.182;2023-03-31T13:06:52;15.50;1.00
3308;DHT22;1666;48.898;9.182;2023-03-31T13:09:38;15.70;1.00
3308;DHT22;1666;48.898;9.182;2023-03-31T13:12:13;15.50;1.00
3308;DHT22;1666;48.898;9.182;2023-03-31T13:14:45;14.80;1.00
3308;DHT22;1666;48.898;9.182;2023-03-31T13:17:26;14.40;1.00
3308;DHT22;1666;48.898;9.182;2023-03-31T13:20:16;13.60;1.00
3308;DHT22;1666;48.898;9.182;2023-03-31T13:22:59;13.30;1.00
3308;DHT22;1666;48.898;9.182;2023-03-31T13:25:48;13.20;1.00
3308;DHT22;1666;48.898;9.182;2023-03-31T13:28:27;13.00;1.00
3308;DHT22;1666;48.898;9.182;2023-03-31T13:31:01;12.60;1.00
3308;DHT22;1666;48.898;9.182;2023-03-31T13:33:42;12.50;1.00
3308;DHT22;1666;48.898;9.182;2023-03-31T13:42:31;12.90;1.00
3308;DHT22;1666;48.898;9.182;2023-03-31T13:45:18;13.10;1.00
3308;DHT22;1666;48.898;9.182;2023-03-31T13:48:00;13.10;1.00
3308;DHT22;1666;48.898;9.182;2023-03-31T13:50:41;13.20;1.00
3308;DHT22;1666;48.898;9.182;2023-03-31T13:53:28;13.00;1.00
3308;DHT22;1666;48.898;9.182;2023-03-31T13:56:11;13.20;1.00
3308;DHT22;1666;48.898;9.182;2023-03-31T14:02:05;12.50;1.00
3308;DHT22;1666;48.898;9.182;2023-03-31T14:05:10;12.60;1.00
3308;DHT22;1666;48.898;9.182;2023-03-31T14:07:52;12.40;1.00
3308;DHT22;1666;48.898;9.182;2023-03-31T14:10:26;12.70;1.00
3308;DHT22;1666;48.898;9.182;2023-03-31T14:13:10;12.50;1.00
3308;DHT22;1666;48.898;9.182;2023-03-31T14:15:46;12.60;1.00
3308;DHT22;1666;48.898;9.182;2023-03-31T14:18:20;12.60;1.00
3308;DHT22;1666;48.898;9.182;2023-03-31T14:21:06;13.10;1.00
3308;DHT22;1666;48.898;9.182;2023-03-31T14:23:52;13.20;1.00
3308;DHT22;1666;48.898;9.182;2023-03-31T14:26:44;13.40;1.00
3308;DHT22;1666;48.898;9.182;2023-03-31T14:29:19;13.60;1.00
3308;DHT22;1666;48.898;9.182;2023-03-31T14:31:57;13.70;1.00
3308;DHT22;1666;48.898;9.182;2023-03-31T14:34:45;13.70;1.00
3308;DHT22;1666;48.898;9.182;2023-03-31T14:37:19;13.70;1.00
3308;DHT22;1666;48.898;9.182;2023-03-31T14:39:53;13.60;1.00
3308;DHT22;1666;48.898;9.182;2023-03-31T14:42:26;13.80;1.00
3308;DHT22;1666;48.898;9.182;2023-03-31T14:45:00;13.90;1.00
3308;DHT22;1666;48.898;9.182;2023-03-31T14:47:30;13.80;1.00
3308;DHT22;1666;48.898;9.182;2023-03-31T14:50:02;13.90;1.00
3308;DHT22;1666;48.898;9.182;2023-03-31T14:52:34;14.10;1.00
3308;DHT22;1666;48.898;9.182;2023-03-31T14:55:13;14.20;1.00
3308;DHT22;1666;48.898;9.182;2023-03-31T14:57:44;14.10;1.00
3308;DHT22;1666;48.898;9.182;2023-03-31T15:00:17;13.90;1.00
3308;DHT22;1666;48.898;9.182;2023-03-31T15:02:49;13.90;1.00
3308;DHT22;1666;48.898;9.182;2023-03-31T15:05:25;13.80;1.00
3308;DHT22;1666;48.898;9.182;2023-03-31T15:07:57;13.90;1.00
3308;DHT22;1666;48.898;9.182;2023-03-31T15:10:35;13.90;1.00
3308;DHT22;1666;48.898;9.182;2023-03-31T15:13:10;14.10;1.00
3308;DHT22;1666;48.898;9.182;2023-03-31T15:15:40;14.20;1.00
3308;DHT22;1666;48.898;9.182;2023-03-31T15:18:12;14.10;1.00
3308;DHT22;1666;48.898;9.182;2023-03-31T15:20:44;13.80;1.00
3308;DHT22;1666;48.898;9.182;2023-03-31T15:23:20;14.00;1.00
3308;DHT22;1666;48.898;9.182;2023-03-31T15:25:57;13.80;1.00
3308;DHT22;1666;48.898;9.182;2023-03-31T15:28:31;13.80;1.00
3308;DHT22;1666;48.898;9.182;2023-03-31T15:31:02;13.60;1.00
3308;DHT22;1666;48.898;9.182;2023-03-31T15:33:36;13.50;1.00
3308;DHT22;1666;48.898;9.182;2023-03-31T15:36:10;13.30;1.00
3308;DHT22;1666;48.898;9.182;2023-03-31T15:38:40;13.50;1.00
3308;DHT22;1666;48.898;9.182;2023-03-31T15:41:15;13.60;1.00
3308;DHT22;1666;48.898;9.182;2023-03-31T15:43:48;13.50;1.00
3308;DHT22;1666;48.898;9.182;2023-03-31T15:46:24;13.60;1.00
3308;DHT22;1666;48.898;9.182;2023-03-31T15:48:55;13.60;1.00
3308;DHT22;1666;48.898;9.182;2023-03-31T15:51:28;13.60;1.00
3308;DHT22;1666;48.898;9.182;2023-03-31T15:53:59;13.60;1.00
3308;DHT22;1666;48.898;9.182;2023-03-31T15:56:34;13.60;1.00
3308;DHT22;1666;48.898;9.182;2023-03-31T15:59:20;13.50;1.00
3308;DHT22;1666;48.898;9.182;2023-03-31T16:02:00;13.50;1.00
3308;DHT22;1666;48.898;9.182;2023-03-31T16:04:32;13.30;1.00
3308;DHT22;1666;48.898;9.182;2023-03-31T16:07:05;13.40;1.00
3308;DHT22;1666;48.898;9.182;2023-03-31T16:09:41;13.40;1.00
3308;DHT22;1666;48.898;9.182;2023-03-31T16:12:18;13.30;1.00
3308;DHT22;1666;48.898;9.182;2023-03-31T16:14:53;13.20;1.00
3308;DHT22;1666;48.898;9.182;2023-03-31T16:17:28;13.20;1.00
3308;DHT22;1666;48.898;9.182;2023-03-31T16:20:02;13.10;1.00
3308;DHT22;1666;48.898;9.182;2023-03-31T16:22:38;13.10;1.00
3308;DHT22;1666;48.898;9.182;2023-03-31T16:25:10;13.00;1.00
3308;DHT22;1666;48.898;9.182;2023-03-31T16:27:45;12.90;1.00
3308;DHT22;1666;48.898;9.182;2023-03-31T16:30:19;12.90;1.00
3308;DHT22;1666;48.898;9.182;2023-03-31T16:32:58;12.90;1.00
3308;DHT22;1666;48.898;9.182;2023-03-31T16:35:30;12.80;1.00
3308;DHT22;1666;48.898;9.182;2023-03-31T16:38:00;12.70;1.00
3308;DHT22;1666;48.898;9.182;2023-03-31T16:40:36;12.50;1.00
3308;DHT22;1666;48.898;9.182;2023-03-31T16:43:13;12.40;1.00
3308;DHT22;1666;48.898;9.182;2023-03-31T16:45:45;12.40;1.00
3308;DHT22;1666;48.898;9.182;2023-03-31T16:48:16;12.30;1.00
3308;DHT22;1666;48.898;9.182;2023-03-31T16:50:48;12.20;1.00
3308;DHT22;1666;48.898;9.182;2023-03-31T16:53:20;12.10;1.00
3308;DHT22;1666;48.898;9.182;2023-03-31T16:55:51;12.10;1.00
3308;DHT22;1666;48.898;9.182;2023-03-31T16:58:25;12.00;1.00
3308;DHT22;1666;48.898;9.182;2023-03-31T17:00:56;11.90;1.00
3308;DHT22;1666;48.898;9.182;2023-03-31T17:03:27;11.90;1.00
3308;DHT22;1666;48.898;9.182;2023-03-31T17:06:04;11.80;1.00
3308;DHT22;1666;48.898;9.182;2023-03-31T17:08:34;11.80;1.00
3308;DHT22;1666;48.898;9.182;2023-03-31T17:11:08;11.70;1.00
3308;DHT22;1666;48.898;9.182;2023-03-31T17:13:41;11.60;1.00
3308;DHT22;1666;48.898;9.182;2023-03-31T17:16:13;11.60;1.00
3308;DHT22;1666;48.898;9.182;2023-03-31T17:18:55;11.70;1.00
3308;DHT22;1666;48.898;9.182;2023-03-31T17:21:25;11.60;1.00
3308;DHT22;1666;48.898;9.182;2023-03-31T17:23:54;11.60;1.00